Time;durP1;ratioP1;P1;durP2;ratioP2;P2;SDS_P1;SDS_P2;PMS_P1;PMS_P2;Temp;Humidity;BMP_temperature;BMP_pressure;BME280_temperature;BME280_humidity;BME280_pressure;Samples;Min_cycle;Max_cycle;Signal;HPM_P1;HPM_P2
2022/05/25 00:01:38;;;;;;;13.68;8.35;;;;;;;8.26;100.00;101075.25;10481884;28;20036;-78
2022/05/25 00:06:40;;;;;;;15.07;8.70;;;;;;;8.27;100.00;101090.66;10499878;28;20100;-78
2022/05/25 00:11:40;;;;;;;13.52;8.57;;;;;;;8.21;100.00;101103.38;10498991;28;20465;-80
2022/05/25 00:16:41;;;;;;;12.77;8.90;;;;;;;8.11;100.00;101089.38;10500248;28;20044;-78
2022/05/25 00:21:41;;;;;;;14.25;10.15;;;;;;;8.17;100.00;101090.38;10498754;28;20029;-80
2022/05/25 00:26:42;;;;;;;15.13;11.35;;;;;;;8.24;100.00;101111.13;10498535;28;20036;-78
2022/05/25 00:31:42;;;;;;;13.15;10.77;;;;;;;8.22;100.00;101106.94;10515458;28;20408;-77
2022/05/25 00:36:43;;;;;;;15.25;10.68;;;;;;;8.24;100.00;101110.28;10515759;28;20051;-78
2022/05/25 00:41:43;;;;;;;19.08;11.50;;;;;;;8.23;100.00;101114.13;10458440;28;20571;-81
2022/05/25 00:46:44;;;;;;;13.52;10.27;;;;;;;8.17;100.00;101099.44;10455420;28;20045;-78
2022/05/25 00:51:48;;;;;;;15.68;10.40;;;;;;;8.18;100.00;101112.06;10439111;28;20426;-79
2022/05/25 00:56:48;;;;;;;13.95;11.18;;;;;;;8.06;100.00;101091.97;10455395;28;20043;-79
2022/05/25 01:01:49;;;;;;;14.25;10.77;;;;;;;8.09;100.00;101114.28;10455979;28;20047;-79
2022/05/25 01:07:08;;;;;;;17.25;11.55;;;;;;;8.12;100.00;101107.50;10491468;28;20198;-80
2022/05/25 01:12:21;;;;;;;14.50;11.40;;;;;;;8.14;100.00;101110.84;10498387;28;20037;-79
2022/05/25 01:17:40;;;;;;;13.80;12.15;;;;;;;8.09;100.00;101111.56;10496387;28;20128;-79
2022/05/25 01:23:00;;;;;;;18.00;13.02;;;;;;;8.08;100.00;101111.78;10496800;28;20028;-79
2022/05/25 01:28:14;;;;;;;20.60;12.55;;;;;;;8.09;100.00;101116.22;10496816;28;20036;-80
2022/05/25 01:33:19;;;;;;;15.65;12.30;;;;;;;8.03;100.00;101117.97;10489118;28;20033;-79
2022/05/25 01:38:38;;;;;;;18.55;13.45;;;;;;;8.01;100.00;101119.28;10463711;28;20150;-79
2022/05/25 01:43:42;;;;;;;15.95;13.10;;;;;;;7.96;100.00;101110.88;10496656;28;20041;-81
2022/05/25 01:48:43;;;;;;;17.85;13.68;;;;;;;7.89;100.00;101113.72;10479673;28;20040;-81
2022/05/25 01:53:44;;;;;;;19.75;12.95;;;;;;;7.92;100.00;101120.63;10446322;28;20028;-81
2022/05/25 01:58:47;;;;;;;20.40;13.75;;;;;;;7.91;100.00;101132.69;10479255;28;20299;-81
2022/05/25 02:09:36;;;;;;;23.35;15.73;;;;;;;7.83;100.00;101133.81;10453140;28;20061;-81
2022/05/25 02:14:37;;;;;;;24.17;15.32;;;;;;;7.84;100.00;101133.59;10456302;28;20033;-80
2022/05/25 02:19:54;;;;;;;23.27;16.52;;;;;;;7.88;100.00;101134.00;10455229;28;20096;-80
2022/05/25 02:24:55;;;;;;;;;;;;;;;7.91;100.00;101132.69;10467309;28;20091;-79
2022/05/25 02:29:58;;;;;;;22.38;16.02;;;;;;;7.84;100.00;101127.28;10452270;28;19943;-81
2022/05/25 02:34:59;;;;;;;24.67;16.75;;;;;;;7.85;100.00;101140.78;10446129;28;20028;-80
2022/05/25 02:40:00;;;;;;;23.05;17.17;;;;;;;7.82;100.00;101135.75;10448067;28;20040;-80
2022/05/25 02:45:00;;;;;;;22.63;17.13;;;;;;;7.83;100.00;101137.44;10485866;28;20033;-80
2022/05/25 02:50:01;;;;;;;24.55;17.92;;;;;;;7.86;100.00;101136.13;10504401;28;20041;-81
2022/05/25 02:55:01;;;;;;;30.65;18.85;;;;;;;7.45;100.00;101107.50;10502643;28;20024;-81
2022/05/25 03:00:03;;;;;;;26.45;17.67;;;;;;;7.83;100.00;101147.53;10485416;28;20029;-79
2022/05/25 03:05:04;;;;;;;29.05;19.58;;;;;;;7.94;100.00;101154.16;10477639;28;20056;-80
2022/05/25 03:10:06;;;;;;;27.45;17.80;;;;;;;8.01;100.00;101149.44;10460060;28;20048;-80
2022/05/25 03:15:06;;;;;;;27.77;18.45;;;;;;;7.96;100.00;101152.00;10462031;28;20029;-80
2022/05/25 03:20:07;;;;;;;28.02;18.67;;;;;;;7.85;100.00;101151.75;10460419;28;20029;-80
2022/05/25 03:25:08;;;;;;;28.35;17.88;;;;;;;7.99;100.00;101160.63;10459954;28;20052;-79
2022/05/25 03:30:10;;;;;;;26.27;16.95;;;;;;;7.91;100.00;101169.16;10458990;28;20037;-80
2022/05/25 03:35:10;;;;;;;26.25;16.95;;;;;;;7.89;100.00;101174.84;10481932;28;20037;-81
2022/05/25 03:40:13;;;;;;;25.30;16.83;;;;;;;7.83;100.00;101180.44;10483977;28;20045;-73
2022/05/25 03:45:14;;;;;;;28.48;17.60;;;;;;;7.75;100.00;101167.88;10517126;28;20459;-80
2022/05/25 03:50:14;;;;;;;24.73;16.80;;;;;;;7.80;100.00;101179.00;10483300;28;20058;-76
2022/05/25 03:55:15;;;;;;;23.33;16.05;;;;;;;7.82;100.00;101185.09;10499602;28;20051;-80
2022/05/25 04:00:17;;;;;;;27.20;16.70;;;;;;;7.82;100.00;101190.56;10515901;28;20028;-81
2022/05/25 04:05:18;;;;;;;28.40;18.38;;;;;;;7.82;100.00;101185.09;10474287;28;20129;-80
2022/05/25 04:10:19;;;;;;;29.15;18.00;;;;;;;7.96;100.00;101190.38;10458435;28;20048;-81
2022/05/25 04:15:21;;;;;;;31.48;20.63;;;;;;;8.04;100.00;101187.34;10457853;28;20056;-81
2022/05/25 04:20:23;;;;;;;33.85;20.17;;;;;;;8.21;100.00;101188.41;10424821;28;20037;-80
2022/05/25 04:25:24;;;;;;;31.80;19.85;;;;;;;8.19;100.00;101162.28;10424818;28;20043;-84
2022/05/25 04:30:26;;;;;;;31.33;20.85;;;;;;;8.47;100.00;101183.66;10441429;28;20071;-81
2022/05/25 04:35:27;;;;;;;31.52;20.42;;;;;;;8.55;100.00;101193.47;10489917;28;20048;-82
2022/05/25 04:40:40;;;;;;;25.95;18.58;;;;;;;8.58;100.00;101179.25;10476553;28;20042;-81
2022/05/25 04:45:42;;;;;;;24.15;17.45;;;;;;;8.71;100.00;101198.28;10465142;28;20044;-81
2022/05/25 04:50:43;;;;;;;26.30;17.60;;;;;;;8.80;100.00;101196.88;10481584;28;20503;-80
2022/05/25 05:01:04;;;;;;;24.92;17.45;;;;;;;8.97;100.00;101191.56;10498079;28;20035;-80
2022/05/25 05:06:06;;;;;;;22.67;16.88;;;;;;;8.91;100.00;101176.03;10496559;28;20044;-80
2022/05/25 05:11:16;;;;;;;20.48;15.80;;;;;;;9.08;100.00;101181.66;10463801;28;20043;-79
2022/05/25 05:16:18;;;;;;;23.00;16.92;;;;;;;9.24;100.00;101191.09;10463774;28;20090;-78
2022/05/25 05:21:18;;;;;;;22.67;15.95;;;;;;;9.42;100.00;101198.41;10440218;28;20086;-78
2022/05/25 05:26:19;;;;;;;21.60;15.82;;;;;;;9.57;100.00;101196.03;10453738;28;20531;-79
2022/05/25 05:31:19;;;;;;;23.13;15.65;;;;;;;9.76;100.00;101202.22;10456333;28;20033;-80
2022/05/25 05:36:26;;;;;;;21.77;15.55;;;;;;;9.96;100.00;101203.72;10455638;28;20040;-78
2022/05/25 05:41:30;;;;;;;19.90;13.52;;;;;;;10.15;100.00;101194.25;10487071;28;20121;-79
2022/05/25 05:46:30;;;;;;;19.63;13.27;;;;;;;10.43;100.00;101198.13;10479981;28;20048;-76
2022/05/25 05:51:31;;;;;;;17.30;12.02;;;;;;;10.72;100.00;101193.44;10477280;28;20390;-79
2022/05/25 05:56:35;;;;;;;13.10;11.07;;;;;;;11.02;100.00;101186.81;10478629;28;20033;-80
2022/05/25 06:01:36;;;;;;;15.30;9.98;;;;;;;11.44;100.00;101198.22;10472763;28;20033;-82
2022/05/25 06:06:37;;;;;;;15.32;10.23;;;;;;;11.80;100.00;101196.03;10463994;28;20037;-78
2022/05/25 06:11:40;;;;;;;16.77;9.70;;;;;;;12.10;100.00;101189.25;10475075;28;20092;-78
2022/05/25 06:22:10;;;;;;;16.30;10.25;;;;;;;12.56;100.00;101200.81;10517973;28;20059;-78
2022/05/25 06:27:13;;;;;;;13.95;8.98;;;;;;;12.70;100.00;101204.00;10486816;28;20102;-79
2022/05/25 06:32:15;;;;;;;11.70;8.60;;;;;;;12.81;100.00;101200.25;10503093;28;20051;-79
2022/05/25 06:37:20;;;;;;;10.85;8.88;;;;;;;13.16;100.00;101212.72;10486442;28;20040;-80
2022/05/25 06:42:21;;;;;;;12.90;8.45;;;;;;;13.38;100.00;101206.31;10485474;28;20216;-80
2022/05/25 06:47:21;;;;;;;13.77;8.60;;;;;;;13.68;100.00;101208.44;10464791;28;20064;-81
2022/05/25 06:52:23;;;;;;;11.35;7.85;;;;;;;13.78;100.00;101207.69;10500621;28;20053;-82
2022/05/25 06:57:25;;;;;;;15.65;8.88;;;;;;;14.02;100.00;101225.53;10500840;28;20037;-76
2022/05/25 07:02:26;;;;;;;10.73;6.95;;;;;;;14.17;100.00;101218.41;10500638;28;20033;-78
2022/05/25 07:07:26;;;;;;;8.40;7.30;;;;;;;14.24;100.00;101225.38;10458030;28;20072;-81
2022/05/25 07:12:31;;;;;;;13.63;6.75;;;;;;;14.37;100.00;101223.19;10496956;28;20037;-78
2022/05/25 07:17:33;;;;;;;8.48;6.85;;;;;;;14.57;100.00;101212.19;10481451;28;20546;-80
2022/05/25 07:28:51;;;;;;;8.82;6.20;;;;;;;14.03;100.00;101079.63;11548867;22;20085;-86
2022/05/25 07:39:48;;;;;;;8.25;6.05;;;;;;;14.53;100.00;101092.75;9980621;23;20043;-91
2022/05/25 07:44:53;;;;;;;10.90;6.43;;;;;;;14.04;100.00;100990.78;10194042;28;20054;-91
2022/05/25 07:49:53;;;;;;;9.00;5.82;;;;;;;15.03;100.00;101123.56;10196497;28;20039;-90
2022/05/25 07:54:55;;;;;;;8.02;4.85;;;;;;;14.33;100.00;101021.53;10192234;28;20474;-89
2022/05/25 07:59:56;;;;;;;8.15;5.25;;;;;;;15.37;100.00;101177.63;10191068;28;20093;-91
2022/05/25 08:10:18;;;;;;;7.90;5.45;;;;;;;15.13;100.00;101054.22;10196326;28;20126;-90
2022/05/25 08:15:19;;;;;;;6.97;5.05;;;;;;;14.46;100.00;100981.38;10196292;28;20032;-89
2022/05/25 08:20:20;;;;;;;6.68;4.57;;;;;;;15.26;100.00;101088.03;10190725;28;20476;-91
2022/05/25 08:25:21;;;;;;;4.50;3.38;;;;;;;15.68;100.00;101114.56;10189161;28;20479;-88
2022/05/25 08:30:22;;;;;;;4.47;3.25;;;;;;;15.66;100.00;101075.16;10179789;28;20059;-89
2022/05/25 08:35:22;;;;;;;8.38;3.58;;;;;;;16.43;100.00;101160.88;10201503;28;20122;-87
2022/05/25 08:40:26;;;;;;;4.80;3.25;;;;;;;16.38;100.00;101114.53;10189991;29;20048;-87
2022/05/25 08:45:31;;;;;;;4.60;2.40;;;;;;;15.98;100.00;101087.78;10134501;29;20491;-87
2022/05/25 08:50:31;;;;;;;3.85;2.40;;;;;;;16.08;100.00;101087.75;10163599;29;20044;-85
2022/05/25 08:55:58;;;;;;;8.32;3.10;;;;;;;17.15;100.00;101212.13;10162333;29;20028;-87
2022/05/25 09:00:59;;;;;;;5.70;2.75;;;;;;;16.50;100.00;101108.63;10167253;29;20176;-89
2022/05/25 09:06:11;;;;;;;4.75;3.05;;;;;;;16.32;100.00;101118.44;10147242;29;20484;-86
2022/05/25 09:11:28;;;;;;;7.05;4.40;;;;;;;16.47;100.00;101095.28;10152601;29;20028;-87
2022/05/25 09:16:29;;;;;;;3.80;2.33;;;;;;;16.50;99.51;101036.34;10150608;29;20095;-85
2022/05/25 09:21:32;;;;;;;4.22;3.13;;;;;;;17.21;95.60;101053.53;10158328;29;20043;-88
2022/05/25 09:26:33;;;;;;;7.72;2.30;;;;;;;17.75;91.18;101102.44;10148416;29;20048;-87
2022/05/25 09:31:50;;;;;;;3.17;1.27;;;;;;;18.00;87.51;101080.97;10165386;29;20042;-86
2022/05/25 09:36:52;;;;;;;;;;;;;;;18.82;86.84;101213.66;10165283;29;20039;-86
2022/05/25 09:41:58;;;;;;;3.72;1.85;;;;;;;17.46;86.33;101055.19;10161301;29;19911;-87
2022/05/25 09:47:03;;;;;;;3.10;1.70;;;;;;;18.53;87.15;101222.97;10138327;29;21550;-86
2022/05/25 09:52:39;;;;;;;4.25;1.30;;;;;;;17.88;85.97;101095.34;10158947;29;20032;-90
2022/05/25 09:57:45;;;;;;;6.20;1.60;;;;;;;17.49;85.66;101052.63;10104600;29;20045;-91
2022/05/25 10:02:50;;;;;;;3.38;1.48;;;;;;;17.90;85.53;101160.78;10104256;29;20038;-89
2022/05/25 10:07:56;;;;;;;4.30;1.70;;;;;;;17.67;85.91;101066.91;10144014;23;20051;-90
2022/05/25 10:13:06;;;;;;;3.17;1.67;;;;;;;18.51;85.19;101163.88;10108024;28;20039;-92
2022/05/25 10:18:22;;;;;;;6.55;2.97;;;;;;;17.81;85.66;101112.38;10071372;29;20098;-90
2022/05/25 10:23:57;;;;;;;3.95;1.40;;;;;;;18.23;89.94;101247.31;9985863;29;20051;-94
2022/05/25 10:29:08;;;;;;;4.82;1.77;;;;;;;17.44;84.59;101036.00;10077792;29;20507;-86
2022/05/25 10:39:28;;;;;;;3.10;1.48;;;;;;;19.40;81.83;101227.22;10024277;29;20218;-92
2022/05/25 10:44:45;;;;;;;3.70;2.38;;;;;;;18.17;79.11;100981.00;10100591;29;20045;-91
2022/05/25 10:49:48;;;;;;;4.53;2.00;;;;;;;18.08;78.37;101033.78;10099357;29;20519;-93
2022/05/25 10:54:56;;;;;;;4.25;1.40;;;;;;;18.37;78.67;101141.50;10133852;29;20087;-91
2022/05/25 11:00:30;;;;;;;1.73;1.33;;;;;;;17.81;79.92;101145.81;10051892;29;20047;-92
2022/05/25 11:05:51;;;;;;;6.50;2.03;;;;;;;17.62;84.83;101214.53;10056678;29;20127;-91
2022/05/25 11:11:14;;;;;;;7.18;1.90;;;;;;;17.41;81.87;101083.91;10061190;29;20058;-90
2022/05/25 11:17:08;;;;;;;2.83;2.33;;;;;;;18.94;81.85;101188.94;10053593;29;20100;-96
2022/05/25 11:22:28;;;;;;;4.30;2.17;;;;;;;18.73;79.95;101086.03;9995197;29;20096;-93
2022/05/25 11:27:48;;;;;;;3.20;2.05;;;;;;;18.57;79.01;101122.81;10058784;29;20068;-95
2022/05/25 11:33:16;;;;;;;7.80;2.65;;;;;;;19.03;81.15;101180.69;10018089;29;20127;-95
2022/05/25 11:38:29;;;;;;;6.03;1.77;;;;;;;18.72;81.05;101073.19;10081150;29;20092;-93
2022/05/25 11:43:54;;;;;;;3.75;1.85;;;;;;;19.10;74.48;101154.06;10051046;29;20045;-92
2022/05/25 11:49:32;;;;;;;5.93;2.00;;;;;;;19.33;77.59;101165.41;10059224;29;20040;-90
2022/05/25 11:54:55;;;;;;;4.03;2.20;;;;;;;19.07;76.92;101149.06;10057172;29;20040;-91
2022/05/25 12:00:44;;;;;;;3.33;1.13;;;;;;;19.04;70.26;101040.03;9990990;29;20373;-94
2022/05/25 12:06:00;;;;;;;3.28;1.15;;;;;;;19.54;70.70;101060.56;10053128;29;20048;-91
2022/05/25 12:11:12;;;;;;;7.50;1.10;;;;;;;19.07;69.35;101026.28;10063072;29;20422;-92
2022/05/25 12:16:20;;;;;;;4.03;1.80;;;;;;;18.06;70.45;100985.06;10051367;29;20481;-89
2022/05/25 12:21:30;;;;;;;7.53;2.30;;;;;;;17.86;72.01;101100.38;10060307;29;20028;-89
2022/05/25 12:26:32;;;;;;;4.57;2.40;;;;;;;17.23;73.78;101196.78;10138075;29;20028;-89
2022/05/25 12:31:32;;;;;;;6.70;3.25;;;;;;;15.52;86.25;101070.22;10155649;29;20055;-88
2022/05/25 12:36:33;;;;;;;7.20;3.75;;;;;;;15.49;100.00;101215.06;10144140;29;20056;-88
2022/05/25 12:41:37;;;;;;;3.97;3.55;;;;;;;14.47;100.00;101134.56;10143763;29;20087;-88
2022/05/25 12:52:41;;;;;;;4.47;3.05;;;;;;;17.77;92.29;101255.31;10155424;29;20036;-89
2022/05/25 12:57:52;;;;;;;6.68;3.10;;;;;;;16.90;85.59;101028.78;10110682;29;20451;-88
2022/05/25 13:02:53;;;;;;;4.15;2.55;;;;;;;17.30;85.27;101140.78;10124109;29;20036;-89
2022/05/25 13:07:53;;;;;;;4.78;3.30;;;;;;;16.58;85.94;100969.03;10111322;29;20455;-89
2022/05/25 13:12:59;;;;;;;7.82;3.53;;;;;;;16.97;83.89;100976.47;10137406;29;20503;-89
2022/05/25 13:18:00;;;;;;;6.07;3.35;;;;;;;18.68;82.52;101074.94;10156905;29;20035;-88
2022/05/25 13:23:01;;;;;;;3.50;2.75;;;;;;;19.11;79.29;101027.34;10158654;29;20119;-89
2022/05/25 13:28:23;;;;;;;6.00;2.95;;;;;;;18.15;78.93;100961.78;10131228;29;20500;-90
2022/05/25 13:33:25;;;;;;;10.55;3.83;;;;;;;18.63;80.73;101036.00;10110465;29;20056;-90
2022/05/25 13:38:35;;;;;;;6.65;2.60;;;;;;;19.27;81.32;101209.31;10145328;29;20035;-90
2022/05/25 13:43:38;;;;;;;4.82;1.73;;;;;;;19.15;84.42;101215.38;10149718;29;20031;-89
2022/05/25 13:48:39;;;;;;;4.45;1.15;;;;;;;18.23;78.85;101010.44;10160860;29;20047;-90
2022/05/25 13:53:39;;;;;;;2.63;0.88;;;;;;;17.91;76.56;100977.78;10137273;29;20036;-89
2022/05/25 13:58:49;;;;;;;6.28;1.15;;;;;;;18.12;76.80;101045.97;10139030;29;20050;-91
2022/05/25 14:03:52;;;;;;;8.52;0.60;;;;;;;18.58;76.36;101195.00;10124157;29;20031;-88
2022/05/25 14:14:46;;;;;;;3.15;1.00;;;;;;;18.58;75.40;101185.81;10159469;29;20028;-89
2022/05/25 14:19:51;;;;;;;3.30;0.80;;;;;;;17.65;75.36;101027.38;10159709;29;20456;-88
2022/05/25 14:24:56;;;;;;;1.75;0.60;;;;;;;17.66;73.40;101032.66;10138062;29;20365;-88
2022/05/25 14:30:02;;;;;;;1.15;0.50;;;;;;;17.08;71.95;100927.09;10160971;29;20043;-89
2022/05/25 14:35:05;;;;;;;5.68;0.80;;;;;;;18.83;71.22;101201.34;10133183;29;20060;-89
2022/05/25 14:40:12;;;;;;;6.47;0.90;;;;;;;17.46;70.49;101010.66;10101833;29;20488;-91
2022/05/25 14:45:14;;;;;;;6.13;1.00;;;;;;;17.85;71.64;101051.38;10124635;29;20036;-90
2022/05/25 14:50:33;;;;;;;2.78;1.13;;;;;;;18.01;73.45;101079.88;10100909;29;20056;-90
2022/05/25 14:55:40;;;;;;;4.07;0.60;;;;;;;18.21;71.32;101173.47;10152611;29;20032;-89
2022/05/25 15:00:46;;;;;;;5.53;0.60;;;;;;;17.20;72.92;101044.34;10031326;29;20048;-93
2022/05/25 15:05:58;;;;;;;4.53;0.70;;;;;;;18.17;73.88;101203.94;10069327;28;20550;-94
2022/05/25 15:11:33;;;;;;;2.92;1.00;;;;;;;18.06;72.77;101180.91;10094475;28;20099;-93
2022/05/25 15:22:26;;;;;;;3.13;0.60;;;;;;;17.35;72.58;101093.44;10163175;28;20035;-93
2022/05/25 15:27:36;;;;;;;11.68;0.73;;;;;;;17.08;73.29;101053.09;10112955;29;20086;-94
2022/05/25 15:32:37;;;;;;;3.63;0.80;;;;;;;17.11;72.68;101034.97;10105652;29;20031;-92
2022/05/25 15:38:00;;;;;;;7.63;0.90;;;;;;;17.42;72.61;101110.59;10057849;29;20111;-94
2022/05/25 15:43:00;;;;;;;3.90;0.57;;;;;;;18.04;73.36;101187.91;10046184;29;20040;-85
2022/05/25 15:48:04;;;;;;;4.95;0.85;;;;;;;17.07;73.70;101076.44;10088142;29;20044;-89
2022/05/25 15:54:07;;;;;;;3.50;0.65;;;;;;;17.51;73.91;101197.91;10088972;29;20143;-93
2022/05/25 15:59:30;;;;;;;5.53;0.75;;;;;;;16.09;74.25;100987.47;9947088;29;20043;-90
2022/05/25 16:04:35;;;;;;;4.38;0.60;;;;;;;16.07;74.51;100950.00;10054981;29;20043;-89
2022/05/25 16:09:47;;;;;;;5.07;1.30;;;;;;;16.25;74.03;101015.97;10050199;29;20040;-90
2022/05/25 16:14:51;;;;;;;5.85;1.33;;;;;;;15.84;74.88;101001.53;10029483;29;20103;-90
2022/05/25 16:20:13;;;;;;;9.63;1.52;;;;;;;17.21;77.99;101217.66;10048839;29;20221;-90
2022/05/25 16:25:31;;;;;;;;;;;;;;;;;;;;;
2022/05/25 16:30:32;;;;;;;4.38;1.08;;;;;;;15.69;82.08;101091.25;10049520;29;20039;-89
2022/05/25 16:35:39;;;;;;;9.80;1.33;;;;;;;15.20;85.15;101039.25;10066993;29;20059;-89
2022/05/25 16:40:43;;;;;;;8.23;1.15;;;;;;;15.25;87.27;101039.22;10052795;29;20050;-92
2022/05/25 16:45:47;;;;;;;8.10;1.60;;;;;;;15.30;87.46;100984.56;10112441;29;20027;-93
2022/05/25 16:50:47;;;;;;;7.45;0.90;;;;;;;16.47;86.53;101167.53;10130255;29;20048;-93
2022/05/25 16:55:55;;;;;;;5.82;1.10;;;;;;;15.12;79.90;100966.59;10075547;29;20111;-91
2022/05/25 17:00:57;;;;;;;10.02;1.65;;;;;;;15.68;80.99;101059.03;10148567;29;20031;-94
2022/05/25 17:06:05;;;;;;;7.50;0.90;;;;;;;15.57;81.05;101060.22;10115441;29;20066;-91
2022/05/25 17:11:28;;;;;;;12.48;1.70;;;;;;;16.64;81.56;101217.19;10127023;29;20052;-92
2022/05/25 17:17:25;;;;;;;5.20;1.17;;;;;;;15.57;81.97;101087.97;10046924;29;20053;-92
2022/05/25 17:22:40;;;;;;;7.15;1.00;;;;;;;15.83;82.30;101124.78;10027283;29;20070;-90
2022/05/25 17:28:04;;;;;;;7.47;0.93;;;;;;;15.59;84.27;101114.31;9926019;29;20505;-92
2022/05/25 17:33:56;;;;;;;8.43;1.38;;;;;;;16.26;85.28;101234.31;9933225;29;20049;-96
2022/05/25 17:44:43;;;;;;;6.32;1.45;;;;;;;14.71;88.72;101102.47;10047735;29;20039;-94
2022/05/25 17:50:14;;;;;;;6.53;1.35;;;;;;;15.69;91.37;101263.34;10040991;29;20160;-93
2022/05/25 17:55:18;;;;;;;2.60;0.70;;;;;;;14.08;93.03;101058.34;10083052;29;20071;-91
2022/05/25 18:00:18;;;;;;;5.65;0.93;;;;;;;14.07;95.61;101072.44;10099084;29;20085;-91
2022/05/25 18:05:21;;;;;;;9.15;1.40;;;;;;;14.55;98.88;101183.88;10055965;29;20385;-92
2022/05/25 18:10:32;;;;;;;6.93;0.95;;;;;;;14.00;100.00;101121.72;10073906;29;20370;-95
2022/05/25 18:15:56;;;;;;;10.98;1.30;;;;;;;14.96;100.00;101269.94;10074482;29;20045;-96
2022/05/25 18:20:59;;;;;;;8.55;0.90;;;;;;;13.97;100.00;101125.00;10073470;29;20040;-93
2022/05/25 18:26:03;;;;;;;9.82;1.10;;;;;;;14.56;100.00;101234.66;9985357;29;20100;-92
2022/05/25 18:31:07;;;;;;;6.07;1.13;;;;;;;13.13;100.00;101153.28;10070713;29;20036;-93
2022/05/25 18:36:20;;;;;;;9.73;1.33;;;;;;;12.83;100.00;101219.34;10124187;29;20096;-92
2022/05/25 18:41:21;;;;;;;7.40;1.70;;;;;;;11.66;100.00;101156.94;10142076;29;20034;-88
2022/05/25 18:46:21;;;;;;;11.38;2.25;;;;;;;11.91;100.00;101247.50;10108645;29;20131;-89
2022/05/25 18:51:22;;;;;;;7.18;2.03;;;;;;;12.00;100.00;101252.59;10112186;29;20067;-88
2022/05/25 18:56:23;;;;;;;9.15;2.10;;;;;;;11.63;100.00;101229.13;10114842;29;20084;-89
2022/05/25 19:01:24;;;;;;;10.32;4.22;;;;;;;11.90;100.00;101228.44;10094811;29;20481;-89
2022/05/25 19:06:25;;;;;;;10.25;2.80;;;;;;;11.59;100.00;101200.38;10147823;29;20103;-90
2022/05/25 19:11:25;;;;;;;5.97;2.42;;;;;;;11.18;100.00;101117.06;10120220;29;20103;-90
2022/05/25 19:16:44;;;;;;;8.52;2.75;;;;;;;10.96;100.00;101102.41;10120743;29;20043;-90
2022/05/25 19:21:52;;;;;;;8.25;2.85;;;;;;;10.72;100.00;101057.69;10115766;29;20035;-90
2022/05/25 19:26:53;;;;;;;11.75;3.78;;;;;;;10.27;100.00;101029.09;10083748;29;20047;-89
2022/05/25 19:31:54;;;;;;;6.18;3.63;;;;;;;11.09;100.00;101121.34;10109357;29;20028;-89
2022/05/25 19:36:55;;;;;;;6.38;3.58;;;;;;;11.28;100.00;101179.78;10141717;29;20039;-88
2022/05/25 19:41:57;;;;;;;7.35;3.53;;;;;;;11.50;100.00;101230.31;10136163;29;20051;-89
2022/05/25 19:46:58;;;;;;;9.77;4.38;;;;;;;10.28;100.00;101050.88;10122364;29;20056;-90
2022/05/25 19:52:01;;;;;;;12.18;5.03;;;;;;;11.69;100.00;101282.44;10091802;29;20051;-89
2022/05/25 19:57:03;;;;;;;8.75;6.22;;;;;;;10.52;100.00;101103.03;10097501;29;20265;-90
2022/05/25 20:02:13;;;;;;;9.32;6.15;;;;;;;12.21;100.00;101375.97;10028024;29;20115;-90
2022/05/25 20:07:16;;;;;;;12.27;7.75;;;;;;;11.43;100.00;101248.97;10052960;29;20073;-89
2022/05/25 20:12:29;;;;;;;11.88;7.53;;;;;;;12.20;100.00;101365.22;9988895;29;20205;-93
2022/05/25 20:17:40;;;;;;;;;;;;;;;;;;;;;
2022/05/25 20:22:44;;;;;;;8.05;6.40;;;;;;;11.43;100.00;101251.72;10089673;29;20107;-89
2022/05/25 20:27:44;;;;;;;10.63;6.00;;;;;;;11.17;100.00;101225.63;10122466;29;20504;-88
2022/05/25 20:32:45;;;;;;;11.93;6.95;;;;;;;11.80;100.00;101328.44;10075214;29;20068;-88
2022/05/25 20:37:46;;;;;;;8.98;6.47;;;;;;;11.47;100.00;101257.53;10118845;29;20059;-88
2022/05/25 20:42:47;;;;;;;9.70;6.32;;;;;;;11.48;100.00;101279.34;10109656;29;20032;-88
2022/05/25 20:47:48;;;;;;;10.60;7.15;;;;;;;10.85;100.00;101156.47;10133906;29;20415;-88
2022/05/25 20:52:48;;;;;;;9.35;7.53;;;;;;;11.23;100.00;101207.28;10159978;29;20037;-87
2022/05/25 20:57:52;;;;;;;12.65;8.80;;;;;;;11.65;100.00;101292.31;10118256;29;20481;-88
2022/05/25 21:02:52;;;;;;;11.68;9.30;;;;;;;10.43;100.00;101088.03;10102286;29;20039;-88
2022/05/25 21:07:53;;;;;;;11.00;9.90;;;;;;;11.30;100.00;101236.31;10109255;29;20472;-88
2022/05/25 21:12:53;;;;;;;21.75;11.40;;;;;;;11.18;100.00;101196.97;10148266;29;20032;-88
2022/05/25 21:17:57;;;;;;;18.42;11.75;;;;;;;11.51;100.00;101270.59;10122111;29;20035;-88
2022/05/25 21:23:01;;;;;;;20.15;11.93;;;;;;;11.16;100.00;101217.63;10087993;29;20036;-88
2022/05/25 21:28:02;;;;;;;18.58;12.98;;;;;;;10.34;100.00;101062.84;10106824;29;20461;-87
2022/05/25 21:33:05;;;;;;;17.20;12.52;;;;;;;12.32;100.00;101397.16;10122501;29;20034;-86
2022/05/25 21:38:09;;;;;;;19.17;12.93;;;;;;;11.95;100.00;101314.06;10078462;29;20385;-90
2022/05/25 21:43:10;;;;;;;18.60;10.82;;;;;;;11.17;100.00;101211.03;10128500;29;20024;-87
2022/05/25 21:53:33;;;;;;;20.27;12.57;;;;;;;11.32;100.00;101186.47;10147467;29;20024;-87
2022/05/25 21:58:34;;;;;;;23.30;13.50;;;;;;;11.05;100.00;101167.84;10144346;29;20030;-88
2022/05/25 22:03:34;;;;;;;21.90;12.93;;;;;;;11.41;100.00;101234.59;10165202;29;20032;-87
2022/05/25 22:08:35;;;;;;;16.50;12.68;;;;;;;11.52;100.00;101236.41;10115258;29;20044;-88
2022/05/25 22:13:36;;;;;;;16.75;11.93;;;;;;;11.54;100.00;101247.19;10092139;29;20036;-87
2022/05/25 22:18:38;;;;;;;16.60;12.88;;;;;;;11.68;100.00;101248.53;10140906;29;20588;-87
2022/05/25 22:23:39;;;;;;;21.58;13.05;;;;;;;11.82;100.00;101301.41;10099624;29;20541;-87
2022/05/25 22:28:40;;;;;;;19.45;14.15;;;;;;;12.05;100.00;101324.41;10117136;29;20048;-87
2022/05/25 22:33:43;;;;;;;20.80;13.57;;;;;;;11.91;100.00;101293.59;10099378;29;20067;-86
2022/05/25 22:38:46;;;;;;;21.52;14.15;;;;;;;11.37;100.00;101199.47;10088034;29;20088;-88
2022/05/25 22:43:47;;;;;;;26.70;14.00;;;;;;;11.34;100.00;101220.13;10113487;29;21408;-88
2022/05/25 22:48:50;;;;;;;21.05;13.77;;;;;;;12.48;100.00;101389.06;10108409;29;20040;-88
2022/05/25 22:53:50;;;;;;;25.92;14.65;;;;;;;11.18;100.00;101201.66;10107720;29;20231;-89
2022/05/25 22:58:51;;;;;;;20.63;13.70;;;;;;;11.61;100.00;101260.81;10123686;29;20035;-88
2022/05/25 23:03:54;;;;;;;25.58;13.18;;;;;;;12.14;100.00;101369.81;10136808;29;20031;-88
2022/05/25 23:08:55;;;;;;;18.73;13.27;;;;;;;11.38;100.00;101243.34;10139651;29;20123;-86
2022/05/25 23:13:56;;;;;;;18.88;12.98;;;;;;;11.39;100.00;101245.03;10131676;29;20040;-94
2022/05/25 23:18:56;;;;;;;19.35;13.13;;;;;;;11.30;100.00;101236.31;10126954;29;20392;-94
2022/05/25 23:23:57;;;;;;;18.67;13.55;;;;;;;11.43;100.00;101232.41;10146079;29;20064;-94
2022/05/25 23:34:17;;;;;;;19.25;14.30;;;;;;;11.46;100.00;101233.84;10133787;29;20068;-93
2022/05/25 23:39:17;;;;;;;23.05;14.48;;;;;;;11.51;100.00;101236.66;10136970;29;20060;-94
2022/05/25 23:44:18;;;;;;;26.27;14.90;;;;;;;12.08;100.00;101338.53;10118340;29;20127;-94
2022/05/25 23:49:19;;;;;;;23.30;13.10;;;;;;;11.47;100.00;101247.38;10130729;29;20047;-95
2022/05/25 23:54:21;;;;;;;19.05;12.60;;;;;;;11.41;100.00;101212.53;10136306;29;20035;-95
2022/05/25 23:59:22;;;;;;;20.75;13.93;;;;;;;11.32;100.00;101200.25;10148685;29;20032;-94
